Time;durP1;ratioP1;P1;durP2;ratioP2;P2;SDS_P1;SDS_P2;PMS_P1;PMS_P2;Temp;Humidity;BMP_temperature;BMP_pressure;BME280_temperature;BME280_humidity;BME280_pressure;Samples;Min_cycle;Max_cycle;Signal;HPM_P1;HPM_P2
2022/03/11 00:00:54;;;;;;;21.25;3.45;;;;;;;21.94;32.51;101882.28;4215517;28;20097;-63
2022/03/11 00:02:55;;;;;;;16.60;3.30;;;;;;;21.93;32.27;101882.53;4215313;28;20036;-64
2022/03/11 00:04:58;;;;;;;15.25;3.03;;;;;;;21.92;32.10;101892.00;4215409;28;20089;-64
2022/03/11 00:07:00;;;;;;;16.20;2.90;;;;;;;21.92;32.45;101897.59;4215229;28;20048;-63
2022/03/11 00:09:04;;;;;;;17.90;3.03;;;;;;;21.92;32.37;101897.59;4214749;28;20036;-65
2022/03/11 00:11:05;;;;;;;19.40;2.83;;;;;;;21.92;32.57;101914.31;4215437;28;20101;-65
2022/03/11 00:13:08;;;;;;;13.65;3.95;;;;;;;21.91;32.75;101924.63;4215489;28;20720;-63
2022/03/11 00:15:10;;;;;;;15.73;3.00;;;;;;;21.87;32.43;101928.19;4214276;28;20048;-63
2022/03/11 00:17:11;;;;;;;15.73;3.15;;;;;;;21.89;32.74;101937.13;4215005;28;20073;-64
2022/03/11 00:19:15;;;;;;;15.13;3.03;;;;;;;21.88;32.44;101943.81;4196486;28;20045;-63
2022/03/11 00:21:17;;;;;;;12.10;3.25;;;;;;;21.88;32.17;101958.56;4213494;28;20089;-63
2022/03/11 00:23:18;;;;;;;19.75;3.40;;;;;;;21.87;32.25;101962.47;4213919;28;20040;-64
2022/03/11 00:25:23;;;;;;;16.33;3.17;;;;;;;21.83;32.50;101962.16;4200962;28;20070;-63
2022/03/11 00:27:24;;;;;;;16.13;3.90;;;;;;;21.87;32.31;101964.41;4197463;28;20083;-64
2022/03/11 00:29:25;;;;;;;26.63;4.07;;;;;;;21.86;32.42;101966.38;4198289;28;20086;-64
2022/03/11 00:31:28;;;;;;;15.52;3.25;;;;;;;21.77;32.34;101957.63;4196733;28;20048;-64
2022/03/11 00:33:29;;;;;;;15.48;2.95;;;;;;;21.83;32.71;101967.72;4196832;28;20511;-64
2022/03/11 00:35:32;;;;;;;13.10;3.45;;;;;;;21.83;32.38;101973.28;4197348;28;20093;-62
2022/03/11 00:37:33;;;;;;;14.38;3.55;;;;;;;21.83;32.69;101973.28;4196671;28;20048;-63
2022/03/11 00:39:35;;;;;;;9.98;2.92;;;;;;;21.83;32.40;101966.88;4179537;28;20582;-63
2022/03/11 00:41:37;;;;;;;11.48;3.00;;;;;;;21.79;32.74;101966.56;4197294;28;20032;-63
2022/03/11 00:43:38;;;;;;;14.10;2.67;;;;;;;21.78;32.50;101967.66;4197596;28;20542;-63
2022/03/11 00:45:40;;;;;;;22.00;2.88;;;;;;;21.62;32.66;101946.31;4197298;28;20032;-63
2022/03/11 00:47:48;;;;;;;13.43;2.97;;;;;;;21.79;32.54;101966.56;4180006;28;20041;-62
2022/03/11 00:49:49;;;;;;;17.35;2.80;;;;;;;21.78;32.50;101970.47;4179778;28;20053;-62
2022/03/11 00:51:50;;;;;;;14.43;3.08;;;;;;;21.78;32.63;101970.47;4183274;28;20079;-62
2022/03/11 00:53:52;;;;;;;19.83;3.80;;;;;;;21.73;32.94;101956.47;4183759;28;20033;-63
2022/03/11 00:55:54;;;;;;;25.95;3.55;;;;;;;21.75;32.84;101956.19;4183944;28;20110;-64
2022/03/11 00:57:59;;;;;;;15.18;3.30;;;;;;;21.74;32.89;101952.56;4183902;28;20037;-63
2022/03/11 01:00:00;;;;;;;30.05;4.60;;;;;;;21.75;32.95;101948.69;4183489;28;20041;-62
2022/03/11 01:02:01;;;;;;;26.30;3.63;;;;;;;21.76;32.84;101946.72;4183043;28;20045;-63
2022/03/11 01:04:03;;;;;;;18.83;2.58;;;;;;;21.74;32.71;101948.97;4183142;28;20362;-61
2022/03/11 01:06:04;;;;;;;24.73;4.57;;;;;;;21.74;32.99;101952.56;4184631;28;20028;-62
2022/03/11 01:08:09;;;;;;;34.67;4.45;;;;;;;21.72;32.89;101943.66;4200387;28;20044;-61
2022/03/11 01:10:13;;;;;;;22.55;3.40;;;;;;;21.73;32.67;101948.13;4200651;28;20044;-61
2022/03/11 01:12:15;;;;;;;23.80;3.75;;;;;;;21.69;32.43;101946.97;4200084;28;20036;-62
2022/03/11 01:14:16;;;;;;;16.98;3.80;;;;;;;21.74;32.62;101948.97;4200407;28;20048;-62
2022/03/11 01:16:18;;;;;;;12.48;3.40;;;;;;;21.72;32.89;101960.38;4199870;28;20434;-62
2022/03/11 01:18:19;;;;;;;34.17;4.20;;;;;;;21.73;32.79;101977.94;4200233;28;20094;-62
2022/03/11 01:20:23;;;;;;;44.53;4.65;;;;;;;21.73;32.82;101987.13;4200168;28;20419;-63
2022/03/11 01:22:25;;;;;;;44.28;5.07;;;;;;;21.73;32.97;101998.25;4199334;28;20032;-62
2022/03/11 01:24:26;;;;;;;35.83;5.40;;;;;;;21.72;32.67;102009.69;4199545;28;20453;-62
2022/03/11 01:26:31;;;;;;;54.00;6.57;;;;;;;21.73;32.96;102012.19;4200743;28;20029;-62
2022/03/11 01:28:32;;;;;;;55.28;6.03;;;;;;;21.73;32.94;102005.78;4200781;28;20024;-63
2022/03/11 01:30:34;;;;;;;43.63;6.07;;;;;;;21.74;32.63;102013.03;4199410;28;20032;-62
2022/03/11 01:32:36;;;;;;;54.78;6.63;;;;;;;21.72;32.56;102010.53;4199937;28;20036;-62
2022/03/11 01:34:37;;;;;;;45.10;7.20;;;;;;;21.72;32.50;102010.53;4200439;28;20380;-62
2022/03/11 01:36:39;;;;;;;42.28;6.05;;;;;;;21.71;32.76;102003.25;4199855;28;20360;-63
2022/03/11 01:38:41;;;;;;;53.65;6.57;;;;;;;21.61;32.47;101980.84;4205425;28;20074;-62
2022/03/11 01:40:43;;;;;;;55.85;6.60;;;;;;;21.72;32.93;101998.53;4202812;28;20041;-60
2022/03/11 01:42:44;;;;;;;38.67;6.72;;;;;;;21.73;32.67;102011.34;4199731;28;20079;-63
2022/03/11 01:44:45;;;;;;;45.80;6.07;;;;;;;21.72;32.56;102021.66;4199667;28;20086;-63
2022/03/11 01:46:47;;;;;;;42.45;6.78;;;;;;;21.72;32.54;102030.03;4199931;28;20044;-63
2022/03/11 01:48:49;;;;;;;49.45;6.10;;;;;;;21.71;32.83;102033.88;4199952;28;20423;-62
2022/03/11 01:50:52;;;;;;;40.88;6.80;;;;;;;21.64;32.53;102018.50;4198862;28;20090;-63
2022/03/11 01:52:54;;;;;;;50.20;6.07;;;;;;;21.72;32.76;102024.44;4200416;28;20491;-63
2022/03/11 01:54:55;;;;;;;60.50;7.20;;;;;;;21.68;32.89;102002.94;4200265;28;20070;-62
2022/03/11 01:56:57;;;;;;;49.95;7.18;;;;;;;21.74;32.84;102013.88;4199801;28;20044;-62
2022/03/11 01:58:59;;;;;;;42.92;6.07;;;;;;;21.72;33.04;102016.09;4199634;28;20036;-64
2022/03/11 02:01:02;;;;;;;40.50;6.05;;;;;;;21.72;33.06;102016.09;4198374;28;20089;-63
2022/03/11 02:03:05;;;;;;;37.22;7.03;;;;;;;21.69;32.73;102008.25;4199868;28;20106;-63
2022/03/11 02:05:07;;;;;;;38.08;6.00;;;;;;;21.70;32.77;102007.13;4200731;28;20434;-63
2022/03/11 02:07:09;;;;;;;38.33;5.88;;;;;;;21.69;32.96;102004.63;4199901;28;20078;-63
2022/03/11 02:09:12;;;;;;;34.65;6.45;;;;;;;21.71;32.74;102006.03;4196772;28;20044;-64
2022/03/11 02:11:14;;;;;;;27.02;5.47;;;;;;;21.70;32.91;101998.78;4199175;28;20442;-64
2022/03/11 02:13:15;;;;;;;35.90;6.15;;;;;;;21.72;33.19;101998.53;4199896;28;20062;-64
2022/03/11 02:15:17;;;;;;;39.83;6.13;;;;;;;21.71;32.82;102008.81;4214830;28;20109;-64
2022/03/11 02:17:18;;;;;;;42.53;5.82;;;;;;;21.72;33.24;102010.53;4218151;28;20065;-64
2022/03/11 02:19:20;;;;;;;38.40;6.47;;;;;;;21.70;33.23;102018.28;4215620;28;20048;-63
2022/03/11 02:21:27;;;;;;;34.40;5.57;;;;;;;21.71;33.24;102033.88;4216978;28;20584;-67
2022/03/11 02:23:35;;;;;;;31.00;6.88;;;;;;;21.72;33.19;102041.16;4198488;28;20465;-64
2022/03/11 02:25:40;;;;;;;30.48;6.47;;;;;;;21.71;33.23;102031.09;4213895;28;20475;-64
2022/03/11 02:27:47;;;;;;;28.58;5.57;;;;;;;21.72;32.96;102021.66;4216324;28;20036;-64
2022/03/11 02:29:49;;;;;;;40.58;5.65;;;;;;;21.75;32.89;102034.22;4216644;28;20430;-64
2022/03/11 02:31:50;;;;;;;26.52;6.40;;;;;;;21.73;33.39;102030.84;4215450;28;20036;-64
2022/03/11 02:33:52;;;;;;;35.92;5.72;;;;;;;21.57;32.96;102008.38;4215443;28;20036;-64
2022/03/11 02:35:54;;;;;;;28.23;6.32;;;;;;;21.71;33.09;102036.66;4216019;28;20089;-64
2022/03/11 02:37:55;;;;;;;33.10;5.72;;;;;;;21.73;33.07;102042.00;4216031;28;20040;-65
2022/03/11 02:39:57;;;;;;;41.83;6.57;;;;;;;21.73;32.99;102042.84;4215781;28;20040;-65
2022/03/11 02:42:00;;;;;;;38.35;6.82;;;;;;;21.65;33.18;102026.56;4211944;28;20097;-63
2022/03/11 02:44:01;;;;;;;32.05;5.43;;;;;;;21.71;33.22;102036.66;4199573;28;20078;-65
2022/03/11 02:46:03;;;;;;;28.92;6.00;;;;;;;21.73;33.41;102037.28;4198865;28;20041;-64
2022/03/11 02:48:06;;;;;;;27.98;5.55;;;;;;;21.71;33.30;102028.31;4198649;28;20036;-64
2022/03/11 02:50:08;;;;;;;40.92;5.70;;;;;;;21.72;33.12;102032.81;4198376;28;20032;-64
2022/03/11 02:52:09;;;;;;;37.53;5.70;;;;;;;21.73;33.35;102028.91;4198249;28;20044;-63
2022/03/11 02:54:10;;;;;;;28.92;4.88;;;;;;;21.74;33.49;102030.59;4198464;28;20098;-64
2022/03/11 02:56:12;;;;;;;26.08;5.30;;;;;;;21.74;33.05;102026.97;4198071;28;20170;-63
2022/03/11 02:58:14;;;;;;;27.33;4.88;;;;;;;21.74;33.05;102021.38;4181348;28;20037;-63
2022/03/11 03:00:16;;;;;;;25.23;4.55;;;;;;;21.69;33.33;102016.59;4198278;28;20052;-64
2022/03/11 03:02:20;;;;;;;20.67;4.43;;;;;;;21.74;33.15;102019.44;4197887;28;20102;-64
2022/03/11 03:04:21;;;;;;;31.05;5.47;;;;;;;21.73;33.15;102006.63;4198223;28;20082;-64
2022/03/11 03:06:23;;;;;;;25.88;5.60;;;;;;;21.74;33.07;102008.28;4197849;28;20067;-64
2022/03/11 03:08:27;;;;;;;25.67;5.13;;;;;;;21.50;33.31;101970.69;4197553;28;20094;-64
2022/03/11 03:10:29;;;;;;;18.90;4.57;;;;;;;21.74;33.37;102008.28;4198584;28;20036;-62
2022/03/11 03:12:30;;;;;;;29.00;5.57;;;;;;;21.75;33.36;102006.34;4199767;28;20475;-64
2022/03/11 03:14:31;;;;;;;27.30;5.50;;;;;;;21.72;33.20;102007.72;4198294;28;20040;-65
2022/03/11 03:16:37;;;;;;;27.70;4.43;;;;;;;21.75;33.28;102021.13;4198948;28;20045;-64
2022/03/11 03:18:38;;;;;;;28.98;4.90;;;;;;;21.75;33.40;102004.41;4197913;28;20040;-64
2022/03/11 03:20:42;;;;;;;22.92;4.75;;;;;;;21.75;33.25;101998.00;4199168;28;20101;-64
2022/03/11 03:22:44;;;;;;;31.98;4.50;;;;;;;21.74;33.39;102001.88;4204313;28;20071;-63
2022/03/11 03:24:47;;;;;;;21.95;4.82;;;;;;;21.73;33.41;101998.25;4202934;28;20033;-63
2022/03/11 03:26:48;;;;;;;23.70;4.43;;;;;;;21.73;33.30;101989.91;4200669;28;20083;-64
2022/03/11 03:28:49;;;;;;;19.15;5.05;;;;;;;21.74;33.19;102002.72;4198707;28;20032;-64
2022/03/11 03:30:54;;;;;;;20.77;4.65;;;;;;;21.74;33.21;102002.72;4198816;28;20094;-63
2022/03/11 03:32:55;;;;;;;21.67;4.63;;;;;;;21.70;33.25;101992.38;4198389;28;20090;-63
2022/03/11 03:34:56;;;;;;;25.95;4.68;;;;;;;21.74;33.20;102002.72;4198905;28;20400;-64
2022/03/11 03:37:04;;;;;;;21.85;4.47;;;;;;;21.72;33.47;101987.41;4198715;28;20488;-64
2022/03/11 03:39:06;;;;;;;18.40;3.92;;;;;;;21.68;33.58;101975.94;4216775;28;20104;-64
2022/03/11 03:41:10;;;;;;;24.10;5.05;;;;;;;21.74;33.53;101980.44;4214574;28;20100;-64
2022/03/11 03:43:14;;;;;;;17.67;4.40;;;;;;;21.67;33.44;101974.25;4215243;28;20044;-63
2022/03/11 03:45:16;;;;;;;21.95;4.75;;;;;;;21.72;33.14;101970.69;4215208;28;20085;-63
2022/03/11 03:47:21;;;;;;;16.90;4.78;;;;;;;21.74;33.37;101974.88;4206374;28;20466;-63
2022/03/11 03:49:23;;;;;;;17.02;3.97;;;;;;;21.74;33.36;101968.47;4196421;28;20032;-66
2022/03/11 03:51:24;;;;;;;18.15;3.92;;;;;;;21.73;33.13;101962.03;4205140;28;20070;-66
2022/03/11 03:53:26;;;;;;;23.45;4.20;;;;;;;21.73;33.51;101967.63;4200416;28;20036;-66
2022/03/11 03:55:27;;;;;;;21.35;3.67;;;;;;;21.74;33.63;101958.16;4200132;28;20479;-66
2022/03/11 03:57:32;;;;;;;18.60;4.38;;;;;;;21.73;33.49;101955.63;4203422;28;20074;-65
2022/03/11 03:59:34;;;;;;;14.23;3.93;;;;;;;21.73;33.23;101959.25;4197266;28;20041;-67
2022/03/11 04:01:36;;;;;;;27.98;4.60;;;;;;;21.74;34.00;101963.72;4190110;28;20087;-68
2022/03/11 04:03:38;;;;;;;27.40;4.13;;;;;;;21.74;33.93;101963.72;4199762;28;20037;-69
2022/03/11 04:05:39;;;;;;;28.73;4.70;;;;;;;21.75;34.56;101959.81;4202101;28;20040;-67
2022/03/11 04:07:42;;;;;;;27.20;5.20;;;;;;;21.76;34.95;101960.66;4197849;28;20021;-66
2022/03/11 04:09:43;;;;;;;24.77;3.60;;;;;;;21.78;35.07;101964.03;4207163;28;20094;-64
2022/03/11 04:11:45;;;;;;;46.65;6.55;;;;;;;21.76;34.89;101944.81;4213966;28;20039;-64
2022/03/11 04:13:50;;;;;;;71.45;8.82;;;;;;;21.76;34.93;101943.94;4211772;28;20430;-65
2022/03/11 04:15:51;;;;;;;70.78;8.20;;;;;;;21.82;35.28;101965.22;4197486;28;20529;-66
2022/03/11 04:17:52;;;;;;;64.70;8.75;;;;;;;21.83;35.29;101951.00;4197648;28;20036;-66
2022/03/11 04:19:54;;;;;;;55.22;8.65;;;;;;;21.82;34.90;101952.13;4208036;28;20044;-68
2022/03/11 04:21:55;;;;;;;61.13;7.72;;;;;;;21.83;35.09;101945.44;4214103;28;20093;-66
2022/03/11 04:23:56;;;;;;;62.50;7.57;;;;;;;21.83;35.35;101942.66;4208202;28;20032;-67
2022/03/11 04:25:58;;;;;;;69.88;8.05;;;;;;;21.81;35.70;101930.94;4209823;28;20037;-65
2022/03/11 04:28:00;;;;;;;51.40;7.05;;;;;;;21.82;35.85;101926.19;4198449;28;20446;-66
2022/03/11 04:30:02;;;;;;;50.55;7.25;;;;;;;21.83;35.69;101925.09;4197800;28;20525;-67
2022/03/11 04:32:05;;;;;;;53.65;7.47;;;;;;;21.83;35.84;101925.94;4204029;28;20040;-66
2022/03/11 04:34:06;;;;;;;43.45;6.85;;;;;;;21.85;35.69;101919.25;4201657;28;20036;-67
2022/03/11 04:36:12;;;;;;;47.28;6.57;;;;;;;21.86;35.71;101920.94;4196190;28;20162;-67
2022/03/11 04:38:14;;;;;;;48.50;6.55;;;;;;;21.82;35.59;101904.75;4198141;28;20054;-67
2022/03/11 04:40:15;;;;;;;38.55;6.07;;;;;;;21.82;35.80;101904.75;4200598;28;20090;-67
2022/03/11 04:42:17;;;;;;;28.85;5.65;;;;;;;21.85;35.78;101919.25;4197248;28;20091;-66
2022/03/11 04:44:19;;;;;;;40.53;6.47;;;;;;;21.84;35.20;101901.69;4197418;28;20062;-66
2022/03/11 04:46:20;;;;;;;32.63;5.57;;;;;;;21.80;35.08;101900.53;4197685;28;20117;-66
2022/03/11 04:48:21;;;;;;;31.95;5.60;;;;;;;21.84;35.42;101910.03;4196494;28;20037;-67
2022/03/11 04:50:23;;;;;;;31.90;6.05;;;;;;;21.83;35.56;101906.41;4201481;28;20051;-65
2022/03/11 04:52:24;;;;;;;38.10;7.13;;;;;;;21.79;35.08;101899.69;4197435;28;20090;-66
2022/03/11 04:54:26;;;;;;;34.00;5.65;;;;;;;21.85;35.40;101902.53;4207512;28;20032;-66
2022/03/11 04:56:30;;;;;;;33.75;5.47;;;;;;;21.83;34.87;101903.63;4197981;28;20044;-66
2022/03/11 04:58:32;;;;;;;24.83;4.75;;;;;;;21.85;35.24;101913.66;4197079;28;20098;-67
2022/03/11 05:00:33;;;;;;;27.10;4.85;;;;;;;21.86;34.70;101912.59;4197281;28;20436;-66
2022/03/11 05:02:35;;;;;;;26.27;5.00;;;;;;;21.84;35.06;101904.47;4196251;28;20036;-67
2022/03/11 05:04:36;;;;;;;22.60;4.30;;;;;;;21.85;34.97;101902.53;4197683;28;20085;-65
2022/03/11 05:06:38;;;;;;;23.80;4.88;;;;;;;21.83;34.65;101889.69;4197316;28;20024;-65
2022/03/11 05:08:39;;;;;;;22.70;4.10;;;;;;;21.86;34.62;101881.94;4196848;28;20037;-66
2022/03/11 05:10:41;;;;;;;26.48;4.07;;;;;;;21.83;34.88;101884.13;4195979;28;20036;-65
2022/03/11 05:12:42;;;;;;;21.98;4.18;;;;;;;21.83;34.72;101883.28;4196684;28;20033;-65
2022/03/11 05:14:49;;;;;;;24.65;4.22;;;;;;;21.84;34.79;101887.75;4197198;28;20070;-66
2022/03/11 05:16:51;;;;;;;19.08;4.57;;;;;;;21.85;34.57;101883.03;4196497;28;20074;-66
2022/03/11 05:18:53;;;;;;;26.27;6.03;;;;;;;21.59;34.73;101835.44;4196533;28;20040;-65
2022/03/11 05:20:55;;;;;;;23.38;3.55;;;;;;;21.82;34.74;101868.53;4196426;28;20045;-65
2022/03/11 05:22:59;;;;;;;18.48;4.28;;;;;;;21.85;34.57;101877.44;4196639;28;20113;-66
2022/03/11 05:25:01;;;;;;;19.60;3.87;;;;;;;21.80;34.51;101876.28;4196972;28;20098;-66
2022/03/11 05:27:03;;;;;;;16.83;4.18;;;;;;;21.85;34.50;101881.06;4196938;28;20040;-66
2022/03/11 05:29:06;;;;;;;18.92;3.75;;;;;;;21.75;34.49;101861.47;4196982;28;20041;-67
2022/03/11 05:31:07;;;;;;;23.15;3.72;;;;;;;21.83;34.34;101881.34;4196323;28;20086;-66
2022/03/11 05:33:11;;;;;;;19.75;3.55;;;;;;;21.82;34.46;101882.47;4197501;28;20101;-66
2022/03/11 05:35:15;;;;;;;12.48;3.15;;;;;;;21.82;34.30;101876.88;4198187;28;20078;-67
2022/03/11 05:37:17;;;;;;;26.47;4.53;;;;;;;21.82;34.52;101871.31;4194846;28;20101;-67
2022/03/11 05:39:19;;;;;;;16.33;4.45;;;;;;;21.83;34.44;101877.72;4200437;28;20331;-65
2022/03/11 05:41:23;;;;;;;10.57;3.05;;;;;;;21.81;34.29;101878.00;4200535;28;20098;-65
2022/03/11 05:43:24;;;;;;;10.63;3.25;;;;;;;21.81;34.50;101875.22;4200546;28;20105;-66
2022/03/11 05:45:26;;;;;;;9.88;3.10;;;;;;;21.82;34.19;101876.03;4199944;28;20094;-65
2022/03/11 05:47:28;;;;;;;16.40;3.33;;;;;;;21.81;34.58;101878.00;4200156;28;20114;-66
2022/03/11 05:49:32;;;;;;;20.10;3.78;;;;;;;21.80;34.33;101875.47;4200693;28;20025;-66
2022/03/11 05:51:37;;;;;;;16.88;3.17;;;;;;;21.79;34.38;101877.41;4199541;28;20032;-65
2022/03/11 05:53:38;;;;;;;10.90;3.83;;;;;;;21.74;34.39;101866.22;4200039;28;20110;-66
2022/03/11 05:55:39;;;;;;;13.25;3.83;;;;;;;21.79;34.20;101877.41;4190145;28;20458;-66
2022/03/11 05:57:41;;;;;;;14.98;3.25;;;;;;;21.76;34.26;101872.38;4216014;28;20040;-66
2022/03/11 05:59:42;;;;;;;13.25;3.60;;;;;;;21.72;34.22;101876.78;4200910;28;20040;-66
2022/03/11 06:01:44;;;;;;;13.68;2.65;;;;;;;21.79;33.95;101893.28;4205158;28;20094;-67
2022/03/11 06:03:46;;;;;;;11.05;2.80;;;;;;;21.73;33.99;101886.81;4215211;28;20032;-67
2022/03/11 06:05:51;;;;;;;10.45;2.78;;;;;;;21.78;34.15;101892.44;4212274;28;20064;-67
2022/03/11 06:07:53;;;;;;;15.88;3.65;;;;;;;21.77;34.08;101896.34;4201146;28;20041;-67
2022/03/11 06:09:54;;;;;;;8.35;2.35;;;;;;;21.75;34.08;101890.19;4200174;28;20037;-66
2022/03/11 06:11:56;;;;;;;13.95;3.08;;;;;;;21.77;33.77;101898.28;4199956;28;20549;-67
2022/03/11 06:13:57;;;;;;;11.00;3.03;;;;;;;21.77;34.17;101893.56;4214439;28;20032;-67
2022/03/11 06:15:59;;;;;;;15.15;3.22;;;;;;;21.77;34.00;101892.72;4210484;28;20044;-67
2022/03/11 06:18:00;;;;;;;9.48;2.60;;;;;;;21.72;34.09;101893.50;4200096;28;20037;-66
2022/03/11 06:20:03;;;;;;;6.93;2.25;;;;;;;21.76;34.13;101899.38;4200466;28;20380;-66
2022/03/11 06:22:04;;;;;;;10.38;2.80;;;;;;;21.75;33.88;101898.53;4207880;28;20492;-66
2022/03/11 06:24:08;;;;;;;8.07;2.38;;;;;;;21.76;33.71;101894.66;4199011;28;20037;-67
2022/03/11 06:26:10;;;;;;;7.22;2.63;;;;;;;21.76;33.69;101894.66;4206501;28;20086;-66
2022/03/11 06:28:14;;;;;;;7.80;2.33;;;;;;;21.76;34.03;101897.47;4182944;28;20071;-65
2022/03/11 06:30:15;;;;;;;6.25;2.70;;;;;;;21.75;33.68;101904.09;4204761;28;20094;-67
2022/03/11 06:32:20;;;;;;;6.68;2.40;;;;;;;21.75;33.63;101906.91;4212716;28;20040;-66
2022/03/11 06:34:24;;;;;;;10.43;2.50;;;;;;;21.75;33.86;101918.03;4202282;28;20041;-67
2022/03/11 06:36:28;;;;;;;11.75;2.55;;;;;;;21.74;33.93;101924.72;4199295;28;20047;-66
2022/03/11 06:38:29;;;;;;;7.75;2.33;;;;;;;21.74;33.63;101927.50;4203705;28;20109;-67
2022/03/11 06:40:31;;;;;;;5.43;2.05;;;;;;;21.72;33.99;101935.31;4199808;28;20090;-66
2022/03/11 06:42:40;;;;;;;7.07;2.40;;;;;;;21.74;33.76;101937.81;4200740;28;20484;-68
2022/03/11 06:44:41;;;;;;;9.73;2.53;;;;;;;21.74;33.57;101938.66;4210985;28;20066;-67
2022/03/11 06:46:43;;;;;;;4.88;2.17;;;;;;;21.69;33.92;101929.41;4214456;28;20106;-66
2022/03/11 06:48:44;;;;;;;3.38;1.90;;;;;;;21.70;33.65;101931.91;4209493;28;20041;-65
2022/03/11 06:50:45;;;;;;;6.22;2.20;;;;;;;21.66;34.02;101927.13;4198794;28;20480;-66
2022/03/11 06:52:47;;;;;;;5.78;2.33;;;;;;;21.71;33.67;101927.19;4205411;28;20105;-67
2022/03/11 06:54:48;;;;;;;5.22;2.60;;;;;;;21.70;33.89;101923.56;4209017;28;20118;-66
2022/03/11 06:56:50;;;;;;;6.55;2.40;;;;;;;21.72;33.51;101931.69;4206217;28;20050;-66
2022/03/11 06:58:51;;;;;;;3.60;2.28;;;;;;;21.71;33.92;101932.75;4216228;28;20440;-67
2022/03/11 07:00:52;;;;;;;7.10;2.00;;;;;;;21.69;33.53;101924.66;4210567;28;20040;-67
2022/03/11 07:02:54;;;;;;;5.35;2.33;;;;;;;21.69;33.81;101921.88;4199846;28;20037;-66
2022/03/11 07:04:55;;;;;;;5.63;2.40;;;;;;;21.70;33.44;101912.41;4215450;28;20047;-66
2022/03/11 07:06:57;;;;;;;5.32;2.00;;;;;;;21.66;33.70;101911.25;4214114;28;20044;-67
2022/03/11 07:08:58;;;;;;;3.67;2.20;;;;;;;21.69;33.29;101916.31;4216188;28;20058;-66
2022/03/11 07:10:59;;;;;;;7.00;2.08;;;;;;;21.69;33.52;101916.31;4211267;28;20050;-66
2022/03/11 07:13:04;;;;;;;5.40;2.05;;;;;;;21.69;33.54;101919.09;4199844;28;20442;-66
2022/03/11 07:15:06;;;;;;;5.60;2.53;;;;;;;21.70;33.50;101915.19;4213586;28;20121;-66
2022/03/11 07:17:08;;;;;;;5.35;1.92;;;;;;;21.70;33.62;101906.84;4202755;28;20058;-66
2022/03/11 07:19:09;;;;;;;5.25;2.10;;;;;;;21.70;33.53;101906.84;4200789;28;20040;-67
2022/03/11 07:21:13;;;;;;;8.85;2.00;;;;;;;21.67;33.25;101901.81;4207324;28;20495;-66
2022/03/11 07:23:15;;;;;;;3.63;2.40;;;;;;;21.61;33.70;101888.94;4202287;28;20097;-67
2022/03/11 07:25:17;;;;;;;6.93;2.28;;;;;;;21.66;33.71;101900.13;4198627;28;20085;-66
2022/03/11 07:27:18;;;;;;;7.22;2.20;;;;;;;21.67;33.30;101890.69;4199183;28;20037;-66
2022/03/11 07:29:20;;;;;;;4.60;2.35;;;;;;;21.68;33.68;101891.50;4198918;28;20432;-66
2022/03/11 07:31:21;;;;;;;5.10;2.05;;;;;;;21.63;33.50;101889.53;4207677;28;20040;-67
2022/03/11 07:33:23;;;;;;;7.30;2.42;;;;;;;21.66;33.69;101888.13;4194800;28;20036;-66
2022/03/11 07:35:24;;;;;;;3.38;2.00;;;;;;;21.66;33.22;101897.34;4209556;28;20044;-67
2022/03/11 07:37:26;;;;;;;7.13;2.17;;;;;;;21.66;33.70;101900.13;4198622;28;20098;-67
2022/03/11 07:39:27;;;;;;;5.00;2.17;;;;;;;21.67;33.52;101899.03;4198053;28;20377;-67
2022/03/11 07:41:29;;;;;;;6.97;2.22;;;;;;;21.67;33.32;101896.25;4202480;28;20024;-67
2022/03/11 07:43:30;;;;;;;3.10;2.03;;;;;;;21.66;33.58;101893.72;4213412;28;20044;-66
2022/03/11 07:45:32;;;;;;;3.53;1.90;;;;;;;21.65;33.58;101887.28;4198212;28;20041;-67
2022/03/11 07:47:33;;;;;;;4.68;2.47;;;;;;;21.65;33.12;101878.09;4197878;28;20036;-65
2022/03/11 07:49:37;;;;;;;4.00;1.90;;;;;;;21.64;33.50;101874.47;4206693;28;20101;-67
2022/03/11 07:51:42;;;;;;;2.55;1.83;;;;;;;21.60;33.17;101858.56;4214123;28;20044;-66
2022/03/11 07:53:44;;;;;;;5.50;2.13;;;;;;;21.64;33.51;101868.06;4202881;28;20036;-68
2022/03/11 07:55:48;;;;;;;4.68;2.17;;;;;;;21.63;33.18;101867.22;4198317;28;20040;-66
2022/03/11 07:57:52;;;;;;;6.57;2.25;;;;;;;21.64;33.21;101863.34;4214491;28;20081;-65
2022/03/11 07:59:53;;;;;;;4.28;2.08;;;;;;;21.64;33.49;101866.13;4211742;28;20468;-65
2022/03/11 08:01:55;;;;;;;6.45;2.50;;;;;;;21.64;33.06;101873.66;4213661;28;20093;-67
2022/03/11 08:03:56;;;;;;;3.60;1.60;;;;;;;21.64;33.28;101885.63;4208642;28;20480;-69
2022/03/11 08:05:57;;;;;;;3.90;2.13;;;;;;;21.64;33.59;101882.84;4211334;28;20445;-67
2022/03/11 08:07:59;;;;;;;4.53;2.03;;;;;;;21.63;33.51;101883.13;4214645;28;20039;-66
2022/03/11 08:10:00;;;;;;;3.58;2.17;;;;;;;21.62;33.24;101886.97;4209097;28;20048;-67
2022/03/11 08:12:03;;;;;;;5.00;2.00;;;;;;;21.57;33.46;101873.84;4201118;28;20081;-66
2022/03/11 08:14:04;;;;;;;4.20;2.17;;;;;;;21.59;33.53;101882.78;4212109;28;20097;-66
2022/03/11 08:16:07;;;;;;;3.35;2.05;;;;;;;21.61;33.17;101879.72;4209331;28;20041;-66
2022/03/11 08:18:08;;;;;;;2.33;1.83;;;;;;;21.61;32.99;101886.13;4204877;28;20048;-67
2022/03/11 08:20:10;;;;;;;4.07;2.20;;;;;;;21.62;33.33;101884.19;4209262;28;20462;-67
2022/03/11 08:22:12;;;;;;;5.88;2.50;;;;;;;21.62;33.42;101890.59;4196816;28;20098;-67
2022/03/11 08:24:16;;;;;;;3.78;2.10;;;;;;;21.60;33.12;101883.63;4198176;28;20044;-65
2022/03/11 08:26:17;;;;;;;3.03;2.10;;;;;;;21.62;33.35;101879.47;4213686;28;20089;-66
2022/03/11 08:28:21;;;;;;;4.47;2.22;;;;;;;21.56;33.14;101874.94;4214426;28;20044;-66
2022/03/11 08:30:26;;;;;;;3.58;2.10;;;;;;;21.65;33.17;101887.28;4210845;28;20557;-65
2022/03/11 08:32:27;;;;;;;3.63;2.05;;;;;;;21.67;33.30;101890.69;4200593;28;20373;-65
2022/03/11 08:34:28;;;;;;;2.80;2.00;;;;;;;21.69;33.33;101885.66;4196711;28;20507;-66
2022/03/11 08:36:30;;;;;;;2.78;2.00;;;;;;;21.70;33.09;101890.13;4197424;28;20550;-66
2022/03/11 08:38:31;;;;;;;5.10;2.25;;;;;;;21.69;32.99;101882.88;4198196;28;20086;-65
2022/03/11 08:40:35;;;;;;;4.28;2.25;;;;;;;21.69;33.07;101882.03;4179630;28;20037;-64
2022/03/11 08:42:40;;;;;;;6.50;2.35;;;;;;;21.72;33.04;101890.72;4196801;28;20094;-67
2022/03/11 08:44:41;;;;;;;;;;;;;;;21.70;33.22;101887.34;4198175;28;20557;-66
2022/03/11 08:46:42;;;;;;;2.80;2.05;;;;;;;21.67;32.82;101857.25;4197516;28;19916;-67
2022/03/11 08:48:44;;;;;;;3.58;2.00;;;;;;;21.79;33.13;101882.13;4197858;28;20082;-66
2022/03/11 08:50:45;;;;;;;2.88;1.98;;;;;;;21.73;32.90;101872.06;4197404;28;20108;-65
2022/03/11 08:52:47;;;;;;;5.00;1.60;;;;;;;21.74;33.09;101874.56;4201625;28;20036;-65
2022/03/11 08:54:48;;;;;;;2.80;1.88;;;;;;;21.76;33.18;101872.38;4199035;28;20442;-64
2022/03/11 08:56:52;;;;;;;3.05;1.90;;;;;;;21.75;33.03;101876.25;4196983;28;20090;-64
2022/03/11 08:58:53;;;;;;;3.83;1.97;;;;;;;21.73;32.98;101860.91;4197454;28;20040;-65
2022/03/11 09:00:55;;;;;;;3.05;1.70;;;;;;;21.77;32.91;101874.06;4210984;28;20545;-65
2022/03/11 09:02:57;;;;;;;3.03;1.90;;;;;;;21.78;33.08;101875.72;4213228;28;20047;-64
2022/03/11 09:04:58;;;;;;;2.70;2.08;;;;;;;21.77;33.21;101868.47;4209277;28;20093;-67
2022/03/11 09:06:59;;;;;;;3.20;1.95;;;;;;;21.79;32.88;101869.03;4208562;28;20056;-67
2022/03/11 09:09:01;;;;;;;2.40;2.10;;;;;;;21.79;32.83;101874.63;4200226;28;20086;-67
2022/03/11 09:11:03;;;;;;;2.45;1.98;;;;;;;21.79;33.21;101877.41;4209854;28;20246;-67
2022/03/11 09:13:04;;;;;;;4.20;2.10;;;;;;;21.81;33.03;101878.00;4199239;28;20094;-67
2022/03/11 09:15:07;;;;;;;2.30;1.90;;;;;;;21.76;32.98;101877.09;4201567;28;20036;-67
2022/03/11 09:17:09;;;;;;;3.70;2.20;;;;;;;21.81;33.07;101875.22;4212861;28;20052;-67
2022/03/11 09:19:10;;;;;;;3.15;2.10;;;;;;;21.76;33.30;101868.72;4185690;28;20037;-65
2022/03/11 09:21:12;;;;;;;2.95;2.22;;;;;;;21.76;33.04;101866.81;4200856;28;20443;-65
2022/03/11 09:23:13;;;;;;;3.38;2.08;;;;;;;21.80;33.39;101870.72;4205051;28;20081;-65